• Join FlightAware (Why Join?)
  • Login
  • US Flag 
08:34PM EDT


 

Airport Tracker/Info


-or-


 

Live Flight TrackerFlight Track Log ✈ N555WL ✈ 01-May-2013 ✈ KBFA - KPTK

Flight Track Log - Related Links

Times and Time Zones

All times are in EDT time to prevent confusion due to time zone crossing. See the N555WL flight status page for this flight to view local times or setup timezone preferences in your user account.

Time Position Orientation Groundspeed Altitude Reporting Facility
EDT Latitude Longitude Course Direction KTS MPH feet Rate Location/Type
02:38PM 45.0142 -84.8897 155° Southeast 243 280 10,600  Level Minneapolis Center
02:39PM 44.9406 -84.8453 157° South 266 306 13,800 2,100 Climbing Minneapolis Center
02:40PM 44.8583 -84.8394 177° South 282 325 15,000 540 Climbing Minneapolis Center
02:41PM 44.7814 -84.8247 172° South 306 352 15,000  Level Minneapolis Center
02:42PM 44.6797 -84.7792 162° South 317 365 15,000  Level Minneapolis Center
02:43PM 44.5969 -84.7186 152° Southeast 331 381 15,000  Level Minneapolis Center
02:44PM 44.5131 -84.6597 153° Southeast 335 386 15,000  Level Minneapolis Center
02:45PM 44.4283 -84.6019 154° Southeast 336 387 15,000  Level Minneapolis Center
02:46PM 44.3372 -84.5394 154° Southeast 341 392 15,000  Level Minneapolis Center
02:47PM 44.2550 -84.4828 154° Southeast 334 384 15,000  Level Minneapolis Center
02:48PM 44.1647 -84.4214 154° Southeast 337 388 15,000  Level Minneapolis Center
02:49PM 44.0764 -84.3589 153° Southeast 333 383 15,000  Level Minneapolis Center
02:50PM 43.9931 -84.3031 154° Southeast 335 386 15,000  Level Minneapolis Center
02:51PM 43.9072 -84.2447 154° Southeast 329 379 15,000 -60 Level Minneapolis Center
02:52PM 43.8231 -84.1864 153° Southeast 334 384 14,900 -60 Descending Minneapolis Center
02:53PM 43.7389 -84.1300 154° Southeast 336 387 14,900  Level Minneapolis Center
02:54PM 43.6531 -84.0772 156° South 336 387 14,900  Level Minneapolis Center
02:55PM 43.5644 -84.0419 164° South 334 384 14,900 -660 Level Minneapolis Center
02:56PM 43.4744 -84.0044 163° South 335 386 13,600 -1,320 Descending Minneapolis Center
02:57PM 43.3886 -83.9669 162° South 329 379 12,200 -1,260 Descending Minneapolis Center
02:58PM 43.3047 -83.9325 163° South 320 368 11,000 -1,020 Descending Minneapolis Center
02:59PM 43.2044 -83.8889 162° South 318 366 10,200 -1,320 Descending Minneapolis Center
03:00PM 43.1275 -83.8592 164° South 309 356 8,400 -1,320 Descending Minneapolis Center
03:01PM 43.0567 -83.8303 163° South 303 349 7,600 -1,920 Descending Minneapolis Center
03:02PM 42.9864 -83.7989 162° South 263 303 4,400 -2,100 Descending Cleveland Center
03:03PM 42.9389 -83.7794 163° South 246 283 4,000 -420 Descending Cleveland Center
03:03PM 42.9225 -83.7731 164° South 252 290 4,000 120 Level Cleveland Center
03:04PM 42.8936 -83.7603 162° South 244 281 4,100  Climbing Cleveland Center
03:04PM 42.8567 -83.7469 165° South 252 290 4,000  Descending Cleveland Center
03:05PM 42.8339 -83.7344 158° South 244 281 4,100  Climbing Cleveland Center
03:05PM 42.7903 -83.7267 173° South 247 284 4,000  Descending Cleveland Center
03:06PM 42.7533 -83.7133 165° South 244 281 4,100  Climbing Cleveland Center
03:06PM 42.7369 -83.6956 141° Southeast 234 269 4,000 -300 Descending Cleveland Center
03:07PM 42.7150 -83.6664 136° Southeast 246 283 3,900 -1,080 Descending Cleveland Center
03:08PM 42.6708 -83.5992 132° Southeast 215 247 2,600 -840 Descending Cleveland Center
03:09PM 42.6600 -83.5367 103° East 154 177 2,200 -540 Descending Cleveland Center
03:10PM 42.6633 -83.4803 85° East 139 160 1,600 -600 Descending Cleveland Center
03:12PM 42.6500 -83.4167 144° Southeast  Level FlightAware Approximate
03:19PM 42.6656 -83.4205 144° Southeast  Level Estimated